Time;durP1;ratioP1;P1;durP2;ratioP2;P2;SDS_P1;SDS_P2;PMS_P1;PMS_P2;Temp;Humidity;BMP_temperature;BMP_pressure;BME280_temperature;BME280_humidity;BME280_pressure;Samples;Min_cycle;Max_cycle;Signal;HPM_P1;HPM_P2
2024/04/04 00:02:15;;;;;;;21.92;2.50;;;;;;;;;;5105941;28;20053;-56
2024/04/04 00:04:40;;;;;;;14.30;2.73;;;;;;;;;;5134261;28;20062;-58
2024/04/04 00:07:06;;;;;;;6.65;1.83;;;;;;;;;;5120520;28;20035;-57
2024/04/04 00:09:31;;;;;;;11.47;2.63;;;;;;;;;;5133760;28;20027;-58
2024/04/04 00:11:56;;;;;;;8.80;2.07;;;;;;;;;;5133971;28;20028;-55
2024/04/04 00:14:22;;;;;;;11.07;1.90;;;;;;;;;;5134622;28;20031;-56
2024/04/04 00:16:47;;;;;;;6.70;1.80;;;;;;;;;;5123735;28;20024;-55
2024/04/04 00:19:13;;;;;;;12.23;2.42;;;;;;;;;;5134106;28;20028;-55
2024/04/04 00:21:38;;;;;;;10.83;2.27;;;;;;;;;;5133897;28;20049;-55
2024/04/04 00:24:04;;;;;;;10.25;3.28;;;;;;;;;;5123286;28;20028;-57
2024/04/04 00:26:29;;;;;;;14.73;1.83;;;;;;;;;;5130683;28;20039;-57
2024/04/04 00:28:55;;;;;;;14.33;2.07;;;;;;;;;;5134449;28;20346;-56
2024/04/04 00:31:20;;;;;;;16.53;1.97;;;;;;;;;;5133891;28;20034;-57
2024/04/04 00:33:46;;;;;;;11.65;1.73;;;;;;;;;;5126419;28;20043;-55
2024/04/04 00:36:11;;;;;;;14.48;1.95;;;;;;;;;;5131431;28;20046;-56
2024/04/04 00:38:37;;;;;;;5.97;1.97;;;;;;;;;;5128579;28;20032;-57
2024/04/04 00:41:03;;;;;;;14.88;2.25;;;;;;;;;;5123936;28;20028;-59
2024/04/04 00:43:29;;;;;;;9.40;1.90;;;;;;;;;;5132849;28;20054;-57
2024/04/04 00:45:55;;;;;;;17.25;3.40;;;;;;;;;;5135523;28;20260;-57
2024/04/04 00:48:21;;;;;;;20.88;2.03;;;;;;;;;;5131698;28;20028;-57
2024/04/04 00:50:47;;;;;;;12.63;1.95;;;;;;;;;;5137920;28;20036;-56
2024/04/04 00:53:12;;;;;;;7.57;2.00;;;;;;;;;;5130524;28;20104;-58
2024/04/04 00:55:38;;;;;;;10.98;2.25;;;;;;;;;;5137768;28;20083;-57
2024/04/04 00:58:04;;;;;;;9.18;1.90;;;;;;;;;;5137777;28;20049;-59
2024/04/04 01:00:29;;;;;;;14.27;2.00;;;;;;;;;;5125064;28;20067;-57
2024/04/04 01:02:55;;;;;;;11.87;2.30;;;;;;;;;;5127720;28;20024;-59
2024/04/04 01:05:21;;;;;;;10.23;2.28;;;;;;;;;;5134217;28;20335;-53
2024/04/04 01:07:49;;;;;;;12.50;2.70;;;;;;;;;;5137759;28;20099;-58
2024/04/04 01:10:14;;;;;;;13.25;2.63;;;;;;;;;;5137719;28;20263;-57
2024/04/04 01:12:40;;;;;;;9.43;2.80;;;;;;;;;;5127969;28;20142;-58
2024/04/04 01:15:06;;;;;;;12.97;3.63;;;;;;;;;;5129868;28;20058;-58
2024/04/04 01:17:31;;;;;;;18.55;4.10;;;;;;;;;;5135959;28;20051;-58
2024/04/04 01:19:57;;;;;;;17.23;5.68;;;;;;;;;;5133995;28;20053;-57
2024/04/04 01:22:23;;;;;;;16.42;3.42;;;;;;;;;;5127263;28;20024;-55
2024/04/04 01:24:48;;;;;;;12.33;2.40;;;;;;;;;;5119660;28;20049;-59
2024/04/04 01:27:14;;;;;;;9.15;2.92;;;;;;;;;;5137680;28;20431;-57
2024/04/04 01:29:40;;;;;;;8.55;2.05;;;;;;;;;;5119650;28;20052;-55
2024/04/04 01:32:05;;;;;;;10.18;2.03;;;;;;;;;;5136191;28;20034;-57
2024/04/04 01:34:31;;;;;;;10.02;1.83;;;;;;;;;;5137169;28;20023;-57
2024/04/04 01:36:56;;;;;;;20.63;2.33;;;;;;;;;;5133899;28;20039;-58
2024/04/04 01:39:22;;;;;;;9.80;2.43;;;;;;;;;;5131299;28;20259;-56
2024/04/04 01:41:47;;;;;;;11.60;2.73;;;;;;;;;;5132809;28;20264;-54
2024/04/04 01:44:13;;;;;;;13.40;2.25;;;;;;;;;;5132815;28;20069;-53
2024/04/04 01:46:39;;;;;;;22.30;4.13;;;;;;;;;;5136963;28;20031;-55
2024/04/04 01:49:05;;;;;;;18.55;3.15;;;;;;;;;;5130564;28;20040;-57
2024/04/04 01:51:31;;;;;;;19.67;3.10;;;;;;;;;;5131267;28;20040;-56
2024/04/04 01:53:56;;;;;;;14.82;3.00;;;;;;;;;;5131221;28;20031;-58
2024/04/04 01:56:22;;;;;;;16.53;2.83;;;;;;;;;;5118893;28;20069;-58
2024/04/04 01:58:47;;;;;;;11.90;2.80;;;;;;;;;;5132035;28;20035;-59
2024/04/04 02:01:12;;;;;;;10.40;2.80;;;;;;;;;;5130084;28;20057;-58
2024/04/04 02:03:37;;;;;;;8.00;1.50;;;;;;;;;;5130461;28;20030;-58
2024/04/04 02:06:04;;;;;;;14.77;2.17;;;;;;;;;;5118680;28;20039;-57
2024/04/04 02:08:30;;;;;;;15.75;3.08;;;;;;;;;;5134494;28;20043;-55
2024/04/04 02:10:55;;;;;;;11.07;2.60;;;;;;;;;;5136450;28;20062;-58
2024/04/04 02:13:20;;;;;;;10.07;2.20;;;;;;;;;;5132506;28;20095;-55
2024/04/04 02:15:47;;;;;;;13.15;2.78;;;;;;;;;;5136366;28;20035;-57
2024/04/04 02:18:12;;;;;;;14.05;2.78;;;;;;;;;;5124806;28;20036;-55
2024/04/04 02:20:40;;;;;;;19.73;3.60;;;;;;;;;;5135465;28;20030;-56
2024/04/04 02:23:06;;;;;;;13.37;2.50;;;;;;;;;;5132715;28;20261;-58
2024/04/04 02:25:31;;;;;;;6.83;1.97;;;;;;;;;;5126827;28;20296;-58
2024/04/04 02:27:56;;;;;;;13.32;2.45;;;;;;;;;;5136508;28;20032;-60
2024/04/04 02:30:22;;;;;;;15.07;2.30;;;;;;;;;;5136102;28;20058;-57
2024/04/04 02:32:49;;;;;;;17.80;3.00;;;;;;;;;;5132890;28;20039;-59
2024/04/04 02:35:15;;;;;;;10.67;2.00;;;;;;;;;;5129286;28;20057;-57
2024/04/04 02:37:41;;;;;;;17.02;2.58;;;;;;;;;;5135982;28;20268;-57
2024/04/04 02:40:08;;;;;;;11.55;2.55;;;;;;;;;;5134716;28;20030;-58
2024/04/04 02:42:35;;;;;;;7.53;1.80;;;;;;;;;;5127832;28;20024;-56
2024/04/04 02:45:02;;;;;;;15.77;2.80;;;;;;;;;;5131842;28;20028;-57
2024/04/04 02:47:27;;;;;;;13.10;2.37;;;;;;;;;;5135898;28;20267;-58
2024/04/04 02:49:54;;;;;;;16.23;2.23;;;;;;;;;;5122610;28;20252;-60
2024/04/04 02:52:19;;;;;;;15.73;3.07;;;;;;;;;;5117671;28;20034;-60
2024/04/04 02:54:45;;;;;;;9.95;2.58;;;;;;;;;;5120452;28;20908;-60
2024/04/04 02:57:11;;;;;;;13.82;2.47;;;;;;;;;;5127924;28;20036;-60
2024/04/04 02:59:37;;;;;;;14.80;2.45;;;;;;;;;;5135438;28;20028;-60
2024/04/04 03:02:02;;;;;;;16.35;3.50;;;;;;;;;;5135337;28;20056;-60
2024/04/04 03:04:28;;;;;;;8.37;2.67;;;;;;;;;;5129564;28;20031;-60
2024/04/04 03:06:53;;;;;;;8.50;3.23;;;;;;;;;;5127853;28;20267;-59
2024/04/04 03:09:18;;;;;;;8.30;2.67;;;;;;;;;;5135583;28;20061;-60
2024/04/04 03:11:44;;;;;;;13.93;2.93;;;;;;;;;;5134637;28;20039;-59
2024/04/04 03:14:09;;;;;;;11.18;2.95;;;;;;;;;;5134618;28;20027;-59
2024/04/04 03:16:35;;;;;;;15.95;3.60;;;;;;;;;;5127558;28;20039;-61
2024/04/04 03:19:00;;;;;;;13.10;3.50;;;;;;;;;;5135465;28;20030;-59
2024/04/04 03:21:26;;;;;;;19.13;3.25;;;;;;;;;;5125166;28;20032;-59
2024/04/04 03:23:51;;;;;;;15.57;3.17;;;;;;;;;;5108747;28;20081;-60
2024/04/04 03:26:17;;;;;;;9.77;3.10;;;;;;;;;;5117881;28;20547;-59
2024/04/04 03:28:43;;;;;;;15.30;3.50;;;;;;;;;;5127947;28;20096;-59
2024/04/04 03:31:08;;;;;;;20.98;3.83;;;;;;;;;;5135268;28;20028;-60
2024/04/04 03:33:33;;;;;;;9.73;3.33;;;;;;;;;;5134791;28;20031;-59
2024/04/04 03:36:01;;;;;;;24.77;3.57;;;;;;;;;;5135331;28;20276;-60
2024/04/04 03:38:27;;;;;;;16.47;3.97;;;;;;;;;;5130915;28;20028;-61
2024/04/04 03:40:53;;;;;;;22.87;3.80;;;;;;;;;;5135192;28;20293;-60
2024/04/04 03:43:19;;;;;;;7.93;3.42;;;;;;;;;;5133898;28;20052;-60
2024/04/04 03:45:44;;;;;;;14.37;3.73;;;;;;;;;;5115668;28;20032;-60
2024/04/04 03:48:10;;;;;;;12.18;4.22;;;;;;;;;;5115963;28;20050;-61
2024/04/04 03:50:35;;;;;;;21.52;4.30;;;;;;;;;;5135106;28;20038;-60
2024/04/04 03:53:04;;;;;;;14.27;3.33;;;;;;;;;;5134461;28;20025;-60
2024/04/04 03:55:30;;;;;;;11.18;3.60;;;;;;;;;;5132302;28;20310;-60
2024/04/04 03:57:55;;;;;;;10.32;3.35;;;;;;;;;;5134369;28;20032;-60
2024/04/04 04:00:21;;;;;;;10.95;4.03;;;;;;;;;;5135076;28;20055;-60
2024/04/04 04:02:46;;;;;;;17.27;4.20;;;;;;;;;;5134491;28;20024;-59
2024/04/04 04:05:14;;;;;;;12.05;3.63;;;;;;;;;;5128946;28;20273;-60
2024/04/04 04:07:40;;;;;;;15.80;4.50;;;;;;;;;;5135225;28;20064;-59
2024/04/04 04:10:06;;;;;;;16.80;3.83;;;;;;;;;;5139185;28;20272;-60
2024/04/04 04:12:31;;;;;;;9.10;3.70;;;;;;;;;;5134947;28;20262;-60
2024/04/04 04:14:57;;;;;;;13.70;3.95;;;;;;;;;;5133937;28;20023;-60
2024/04/04 04:17:22;;;;;;;14.43;4.88;;;;;;;;;;5138489;28;20023;-61
2024/04/04 04:19:50;;;;;;;13.33;4.80;;;;;;;;;;5138764;28;20052;-61
2024/04/04 04:22:16;;;;;;;10.73;5.13;;;;;;;;;;5138268;28;20043;-61
2024/04/04 04:24:41;;;;;;;22.10;6.97;;;;;;;;;;5121286;28;20271;-60
2024/04/04 04:27:07;;;;;;;21.47;5.77;;;;;;;;;;5138040;28;20264;-61
2024/04/04 04:29:33;;;;;;;10.35;5.50;;;;;;;;;;5121032;28;20271;-60
2024/04/04 04:31:59;;;;;;;19.25;6.15;;;;;;;;;;5133368;28;20028;-60
2024/04/04 04:34:24;;;;;;;16.67;5.20;;;;;;;;;;5131308;28;20085;-60
2024/04/04 04:37:10;;;;;;;16.40;6.57;;;;;;;;;;5126386;28;20027;-60
2024/04/04 04:39:36;;;;;;;15.47;5.40;;;;;;;;;;5138302;28;20053;-61
2024/04/04 04:42:01;;;;;;;17.63;6.87;;;;;;;;;;5136289;28;20331;-61
2024/04/04 04:44:27;;;;;;;14.90;6.03;;;;;;;;;;5136333;28;20256;-61
2024/04/04 04:46:53;;;;;;;17.17;7.35;;;;;;;;;;5131590;28;20032;-62
2024/04/04 04:49:18;;;;;;;14.25;6.18;;;;;;;;;;5137888;28;21074;-61
2024/04/04 04:51:44;;;;;;;23.07;8.53;;;;;;;;;;5132020;28;20119;-61
2024/04/04 04:54:10;;;;;;;15.37;6.83;;;;;;;;;;5128430;28;20028;-62
2024/04/04 04:56:36;;;;;;;15.00;6.55;;;;;;;;;;5133062;28;20287;-62
2024/04/04 04:59:02;;;;;;;57.37;9.67;;;;;;;;;;5137850;28;20027;-62
2024/04/04 05:01:27;;;;;;;57.38;8.32;;;;;;;;;;5116179;28;20035;-61
2024/04/04 05:03:54;;;;;;;;;;;;;;;;;;5115895;28;20079;-61
2024/04/04 05:06:20;;;;;;;14.13;7.20;;;;;;;;;;5138088;28;19907;-62
2024/04/04 05:08:46;;;;;;;26.17;7.40;;;;;;;;;;5137658;28;20264;-61
2024/04/04 05:11:12;;;;;;;50.80;8.07;;;;;;;;;;5118016;28;20100;-61
2024/04/04 05:13:38;;;;;;;24.03;7.87;;;;;;;;;;5137270;28;20023;-61
2024/04/04 05:16:03;;;;;;;25.60;7.90;;;;;;;;;;5132949;28;20330;-62
2024/04/04 05:18:30;;;;;;;14.83;7.87;;;;;;;;;;5130338;28;20028;-61
2024/04/04 05:21:00;;;;;;;18.33;7.70;;;;;;;;;;5137367;28;20027;-62
2024/04/04 05:23:25;;;;;;;29.63;8.67;;;;;;;;;;5131781;28;20023;-61
2024/04/04 05:25:50;;;;;;;18.93;7.63;;;;;;;;;;5135553;28;20264;-60
2024/04/04 05:28:16;;;;;;;29.92;8.02;;;;;;;;;;5137119;28;20040;-62
2024/04/04 05:30:41;;;;;;;28.17;8.23;;;;;;;;;;5117230;28;20043;-61
2024/04/04 05:33:06;;;;;;;28.70;7.57;;;;;;;;;;5133516;28;20031;-61
2024/04/04 05:35:32;;;;;;;20.80;7.87;;;;;;;;;;5132409;28;20040;-61
2024/04/04 05:37:57;;;;;;;20.87;7.73;;;;;;;;;;5137386;28;20088;-61
2024/04/04 05:40:23;;;;;;;31.92;7.07;;;;;;;;;;5136431;28;20019;-62
2024/04/04 05:42:48;;;;;;;26.53;7.53;;;;;;;;;;5131400;28;20036;-61
2024/04/04 05:45:14;;;;;;;17.98;7.65;;;;;;;;;;5131474;28;20035;-60
2024/04/04 05:47:39;;;;;;;19.40;6.53;;;;;;;;;;5126127;28;20050;-61
2024/04/04 05:50:05;;;;;;;15.88;5.82;;;;;;;;;;5136214;28;20037;-60
2024/04/04 05:52:30;;;;;;;24.23;7.10;;;;;;;;;;5136782;28;20043;-62
2024/04/04 05:54:56;;;;;;;28.00;6.93;;;;;;;;;;5129575;28;20032;-61
2024/04/04 05:57:21;;;;;;;25.42;8.95;;;;;;;;;;5132529;28;20042;-61
2024/04/04 05:59:47;;;;;;;17.63;6.33;;;;;;;;;;5123593;28;20035;-61
2024/04/04 06:02:12;;;;;;;32.73;5.77;;;;;;;;;;5135431;28;20071;-61
2024/04/04 06:04:37;;;;;;;25.97;4.90;;;;;;;;;;5133603;28;20027;-61
2024/04/04 06:07:03;;;;;;;27.25;6.40;;;;;;;;;;5132304;28;20026;-61
2024/04/04 06:09:29;;;;;;;27.13;5.43;;;;;;;;;;5136268;28;20051;-61
2024/04/04 06:11:54;;;;;;;19.55;6.90;;;;;;;;;;5136614;28;20023;-62
2024/04/04 06:14:27;;;;;;;36.80;6.43;;;;;;;;;;5135434;28;20031;-61
2024/04/04 06:16:52;;;;;;;21.13;5.00;;;;;;;;;;5136511;28;20290;-61
2024/04/04 06:19:18;;;;;;;38.17;6.60;;;;;;;;;;5136416;28;20079;-61
2024/04/04 06:21:43;;;;;;;33.77;5.90;;;;;;;;;;5133220;28;20058;-61
2024/04/04 06:24:09;;;;;;;16.77;5.03;;;;;;;;;;5135532;28;20444;-62
2024/04/04 06:26:35;;;;;;;20.33;5.22;;;;;;;;;;5126104;28;20032;-63
2024/04/04 06:29:01;;;;;;;18.83;4.55;;;;;;;;;;5122679;28;20054;-63
2024/04/04 06:31:27;;;;;;;25.00;6.00;;;;;;;;;;5135631;28;20047;-63
2024/04/04 06:33:52;;;;;;;14.88;4.68;;;;;;;;;;5133840;28;20031;-63
2024/04/04 06:36:18;;;;;;;16.83;5.07;;;;;;;;;;5128636;28;20016;-63
2024/04/04 06:38:43;;;;;;;21.03;5.67;;;;;;;;;;5113949;28;20034;-63
2024/04/04 06:41:09;;;;;;;18.48;5.75;;;;;;;;;;5135937;28;20039;-64
2024/04/04 06:43:34;;;;;;;18.77;5.82;;;;;;;;;;5134641;28;20130;-63
2024/04/04 06:45:59;;;;;;;24.08;5.63;;;;;;;;;;5135990;28;20024;-62
2024/04/04 06:48:25;;;;;;;15.35;5.90;;;;;;;;;;5135727;28;20036;-63
2024/04/04 06:50:51;;;;;;;19.40;5.30;;;;;;;;;;5135660;28;20047;-63
2024/04/04 06:53:16;;;;;;;19.70;5.15;;;;;;;;;;5135223;28;20035;-63
2024/04/04 06:55:42;;;;;;;12.43;5.03;;;;;;;;;;5129132;28;20091;-63
2024/04/04 06:58:07;;;;;;;14.27;4.88;;;;;;;;;;5135690;28;20020;-63
2024/04/04 07:00:33;;;;;;;13.07;4.95;;;;;;;;;;5135437;28;20036;-63
2024/04/04 07:02:58;;;;;;;16.45;4.50;;;;;;;;;;5126724;28;20031;-63
2024/04/04 07:05:24;;;;;;;17.38;5.22;;;;;;;;;;5131295;28;20057;-65
2024/04/04 07:07:50;;;;;;;17.33;5.22;;;;;;;;;;5135675;28;20031;-63
2024/04/04 07:10:16;;;;;;;14.55;4.65;;;;;;;;;;5135517;28;20035;-62
2024/04/04 07:12:41;;;;;;;14.50;4.10;;;;;;;;;;5135563;28;20047;-63
2024/04/04 07:15:07;;;;;;;19.98;4.45;;;;;;;;;;5134836;28;20032;-63
2024/04/04 07:17:33;;;;;;;10.50;4.68;;;;;;;;;;5135341;28;20113;-62
2024/04/04 07:19:59;;;;;;;16.45;4.75;;;;;;;;;;5135278;28;20100;-63
2024/04/04 07:22:26;;;;;;;17.30;5.28;;;;;;;;;;5135359;28;20066;-63
2024/04/04 07:24:52;;;;;;;12.57;4.60;;;;;;;;;;5130262;28;20030;-63
2024/04/04 07:27:17;;;;;;;12.60;5.00;;;;;;;;;;5127974;28;20285;-63
2024/04/04 07:29:43;;;;;;;20.92;5.30;;;;;;;;;;5128874;28;20039;-62
2024/04/04 07:32:09;;;;;;;16.10;5.93;;;;;;;;;;5131868;28;20050;-62
2024/04/04 07:34:35;;;;;;;17.73;5.65;;;;;;;;;;5126360;28;20035;-62
2024/04/04 07:37:00;;;;;;;13.02;4.45;;;;;;;;;;5114205;28;20062;-62
2024/04/04 07:39:26;;;;;;;24.85;5.35;;;;;;;;;;5116595;28;20059;-64
2024/04/04 07:41:52;;;;;;;17.25;4.60;;;;;;;;;;5134699;28;20073;-62
2024/04/04 07:44:18;;;;;;;10.50;4.38;;;;;;;;;;5138726;28;20047;-62
2024/04/04 07:46:44;;;;;;;10.77;4.50;;;;;;;;;;5120495;28;20046;-63
2024/04/04 07:49:09;;;;;;;13.60;4.53;;;;;;;;;;5138973;28;20027;-62
2024/04/04 07:51:36;;;;;;;8.23;3.90;;;;;;;;;;5139406;28;20036;-62
2024/04/04 07:54:03;;;;;;;16.43;4.17;;;;;;;;;;5135190;28;20028;-62
2024/04/04 07:56:28;;;;;;;9.30;4.30;;;;;;;;;;5134431;28;20304;-63
2024/04/04 07:58:53;;;;;;;13.03;5.07;;;;;;;;;;5132415;28;20046;-63
2024/04/04 08:01:20;;;;;;;14.43;4.55;;;;;;;;;;5139093;28;20032;-62
2024/04/04 08:03:47;;;;;;;12.67;3.90;;;;;;;;;;5137805;28;20027;-62
2024/04/04 08:06:13;;;;;;;14.27;3.80;;;;;;;;;;5137054;28;20274;-63
2024/04/04 08:08:39;;;;;;;11.65;3.83;;;;;;;;;;5114915;28;20038;-62
2024/04/04 08:11:05;;;;;;;12.88;3.95;;;;;;;;;;5138877;28;20048;-61
2024/04/04 08:13:31;;;;;;;10.00;3.37;;;;;;;;;;5138702;28;20087;-61
2024/04/04 08:15:56;;;;;;;12.68;4.22;;;;;;;;;;5123911;28;20280;-62
2024/04/04 08:18:22;;;;;;;6.60;2.90;;;;;;;;;;5132484;28;20028;-62
2024/04/04 08:20:47;;;;;;;8.20;2.63;;;;;;;;;;5139033;28;20047;-63
2024/04/04 08:23:16;;;;;;;12.38;3.25;;;;;;;;;;5129112;28;20119;-62
2024/04/04 08:25:51;;;;;;;17.77;4.03;;;;;;;;;;5127042;28;20046;-61
2024/04/04 08:28:17;;;;;;;11.90;4.13;;;;;;;;;;5124646;28;20269;-62
2024/04/04 08:30:42;;;;;;;8.27;3.57;;;;;;;;;;5120907;28;20275;-62
2024/04/04 08:33:09;;;;;;;6.90;2.83;;;;;;;;;;5132761;28;20036;-61
2024/04/04 08:35:34;;;;;;;12.30;3.30;;;;;;;;;;5138285;28;20039;-62
2024/04/04 08:38:00;;;;;;;15.33;3.60;;;;;;;;;;5138496;28;20327;-61
2024/04/04 08:40:25;;;;;;;10.23;3.37;;;;;;;;;;5138541;28;20058;-62
2024/04/04 08:42:51;;;;;;;9.77;3.45;;;;;;;;;;5135906;28;20028;-62
2024/04/04 08:45:19;;;;;;;21.10;4.18;;;;;;;;;;5120068;28;20032;-62
2024/04/04 08:47:45;;;;;;;12.17;4.30;;;;;;;;;;5138025;28;20020;-63
2024/04/04 08:50:12;;;;;;;13.23;3.95;;;;;;;;;;5138558;28;20290;-63
2024/04/04 08:52:38;;;;;;;18.80;5.57;;;;;;;;;;5138038;28;20073;-62
2024/04/04 08:55:05;;;;;;;13.65;4.68;;;;;;;;;;5130340;28;20252;-62
2024/04/04 08:57:33;;;;;;;10.27;4.47;;;;;;;;;;5132393;28;20052;-62
2024/04/04 08:59:59;;;;;;;20.13;6.43;;;;;;;;;;5137832;28;20316;-62
2024/04/04 09:02:28;;;;;;;14.55;5.03;;;;;;;;;;5120062;28;20248;-63
2024/04/04 09:05:07;;;;;;;12.87;4.87;;;;;;;;;;5130510;28;20020;-63
2024/04/04 09:07:35;;;;;;;18.97;5.17;;;;;;;;;;5118274;28;20283;-62
2024/04/04 09:10:05;;;;;;;18.70;4.10;;;;;;;;;;5137951;28;20252;-62
2024/04/04 09:12:31;;;;;;;18.40;4.83;;;;;;;;;;5137645;28;20281;-62
2024/04/04 09:14:57;;;;;;;10.60;4.53;;;;;;;;;;5112007;28;20268;-62
2024/04/04 09:17:23;;;;;;;16.20;4.22;;;;;;;;;;5135767;28;20099;-62
2024/04/04 09:19:55;;;;;;;12.87;4.13;;;;;;;;;;5137582;28;20035;-63
2024/04/04 09:22:21;;;;;;;13.93;3.63;;;;;;;;;;5136250;28;20054;-63
2024/04/04 09:24:47;;;;;;;15.40;4.70;;;;;;;;;;5133034;28;20257;-62
2024/04/04 09:27:19;;;;;;;12.05;4.65;;;;;;;;;;5132710;28;20112;-63
2024/04/04 09:29:45;;;;;;;12.63;4.13;;;;;;;;;;5130808;28;20032;-62
2024/04/04 09:32:12;;;;;;;14.07;4.23;;;;;;;;;;5136818;28;20248;-63
2024/04/04 09:34:38;;;;;;;13.07;5.03;;;;;;;;;;5134614;28;20271;-62
2024/04/04 09:37:04;;;;;;;10.30;4.72;;;;;;;;;;5137311;28;20039;-61
2024/04/04 09:39:30;;;;;;;19.45;6.13;;;;;;;;;;5137107;28;20035;-63
2024/04/04 09:41:57;;;;;;;35.63;7.53;;;;;;;;;;5137036;28;20031;-62
2024/04/04 09:44:22;;;;;;;53.78;7.95;;;;;;;;;;5126608;28;20271;-61
2024/04/04 09:46:48;;;;;;;12.03;3.13;;;;;;;;;;5130606;28;20032;-63
2024/04/04 09:49:13;;;;;;;16.67;4.55;;;;;;;;;;5131854;28;20039;-62
2024/04/04 09:51:42;;;;;;;9.18;4.07;;;;;;;;;;5136743;28;20035;-63
2024/04/04 09:54:09;;;;;;;10.20;3.70;;;;;;;;;;5128838;28;20047;-63
2024/04/04 09:56:35;;;;;;;23.57;4.50;;;;;;;;;;5129807;28;20279;-63
2024/04/04 09:59:01;;;;;;;14.65;4.22;;;;;;;;;;5134367;28;20279;-62
2024/04/04 10:01:27;;;;;;;9.45;4.63;;;;;;;;;;5136522;28;20087;-62
2024/04/04 10:03:52;;;;;;;9.93;4.82;;;;;;;;;;5136753;28;20020;-63
2024/04/04 10:06:26;;;;;;;8.95;4.20;;;;;;;;;;5129923;28;20057;-63
2024/04/04 10:08:52;;;;;;;13.17;3.17;;;;;;;;;;5105122;28;20059;-64
2024/04/04 10:11:25;;;;;;;8.57;3.05;;;;;;;;;;5136227;28;20024;-63
2024/04/04 10:13:54;;;;;;;12.43;4.27;;;;;;;;;;5134711;28;20095;-63
2024/04/04 10:16:32;;;;;;;14.33;2.87;;;;;;;;;;5133659;28;20095;-63
2024/04/04 10:19:07;;;;;;;9.93;2.13;;;;;;;;;;5126319;28;20023;-63
2024/04/04 10:21:33;;;;;;;6.63;3.00;;;;;;;;;;5122780;28;20053;-63
2024/04/04 10:24:00;;;;;;;10.00;2.45;;;;;;;;;;5136105;28;20028;-64
2024/04/04 10:26:25;;;;;;;5.50;2.40;;;;;;;;;;5112692;28;20095;-62
2024/04/04 10:28:51;;;;;;;12.10;3.45;;;;;;;;;;5131000;28;20043;-62
2024/04/04 10:31:17;;;;;;;10.18;3.17;;;;;;;;;;5136026;28;20050;-62
2024/04/04 10:33:42;;;;;;;16.30;3.63;;;;;;;;;;5133719;28;20031;-62
2024/04/04 10:36:08;;;;;;;4.57;1.65;;;;;;;;;;5123802;28;20027;-62
2024/04/04 10:38:34;;;;;;;8.35;1.85;;;;;;;;;;5135978;28;20091;-63
2024/04/04 10:41:00;;;;;;;6.73;1.70;;;;;;;;;;5136108;28;20027;-61
2024/04/04 10:43:26;;;;;;;4.13;1.38;;;;;;;;;;5105123;28;20046;-63
2024/04/04 10:45:52;;;;;;;;;;;;;;;;;;5130301;28;20028;-61
2024/04/04 10:48:17;;;;;;;8.80;1.87;;;;;;;;;;5111668;28;19975;-62
2024/04/04 10:50:42;;;;;;;6.80;1.42;;;;;;;;;;5128374;28;20087;-63
2024/04/04 10:53:08;;;;;;;3.38;1.27;;;;;;;;;;5135320;28;20036;-62
2024/04/04 10:55:34;;;;;;;3.90;1.02;;;;;;;;;;5135184;28;20031;-62
2024/04/04 10:58:00;;;;;;;5.97;1.13;;;;;;;;;;5131991;28;20095;-61
2024/04/04 11:00:29;;;;;;;3.20;0.90;;;;;;;;;;5128188;28;20038;-61
2024/04/04 11:02:58;;;;;;;9.23;1.47;;;;;;;;;;5135752;28;20038;-61
2024/04/04 11:05:23;;;;;;;8.03;1.47;;;;;;;;;;5121765;28;20035;-61
2024/04/04 11:07:53;;;;;;;8.68;2.00;;;;;;;;;;5116924;28;20099;-61
2024/04/04 11:10:18;;;;;;;4.73;1.10;;;;;;;;;;5130025;28;20042;-61
2024/04/04 11:12:44;;;;;;;7.30;1.60;;;;;;;;;;5135437;28;20035;-62
2024/04/04 11:15:10;;;;;;;6.72;1.52;;;;;;;;;;5132992;28;20036;-61
2024/04/04 11:17:35;;;;;;;;;;;;;;;;;;5112410;28;20028;-60
2024/04/04 11:20:14;;;;;;;10.47;2.03;;;;;;;;;;5130613;28;19949;-61
2024/04/04 11:22:40;;;;;;;10.20;1.40;;;;;;;;;;5135310;28;20028;-61
2024/04/04 11:25:07;;;;;;;8.67;2.10;;;;;;;;;;5135047;28;20031;-60
2024/04/04 11:27:32;;;;;;;;;;;;;;;;;;5134135;28;20036;-61
2024/04/04 11:29:58;;;;;;;10.40;1.33;;;;;;;;;;5109102;28;19908;-60
2024/04/04 11:32:24;;;;;;;11.65;1.70;;;;;;;;;;5134884;28;20031;-61
2024/04/04 11:34:49;;;;;;;4.47;1.42;;;;;;;;;;5135017;28;20129;-62
2024/04/04 11:37:15;;;;;;;7.32;2.05;;;;;;;;;;5127119;28;20058;-60
2024/04/04 11:39:40;;;;;;;9.57;1.67;;;;;;;;;;5135088;28;20028;-61
2024/04/04 11:42:06;;;;;;;7.30;1.52;;;;;;;;;;5117277;28;20034;-61
2024/04/04 11:44:32;;;;;;;15.85;2.33;;;;;;;;;;5134805;28;20091;-60
2024/04/04 11:46:57;;;;;;;9.95;1.92;;;;;;;;;;5132274;28;20020;-60
2024/04/04 11:49:23;;;;;;;9.93;3.10;;;;;;;;;;5134894;28;20036;-61
2024/04/04 11:51:48;;;;;;;10.73;2.93;;;;;;;;;;5134907;28;20027;-61
2024/04/04 11:54:14;;;;;;;11.80;2.00;;;;;;;;;;5134460;28;20039;-61
2024/04/04 11:56:40;;;;;;;;;;;;;;;;;;5130952;28;20058;-60
2024/04/04 11:59:06;;;;;;;13.27;2.77;;;;;;;;;;5134223;28;19925;-61
2024/04/04 12:01:32;;;;;;;14.82;3.03;;;;;;;;;;5135145;28;20091;-60
2024/04/04 12:03:57;;;;;;;;;;;;;;;;;;5135506;28;20027;-60
2024/04/04 12:06:23;;;;;;;18.67;3.20;;;;;;;;;;5133452;28;19908;-61
2024/04/04 12:08:49;;;;;;;18.15;3.38;;;;;;;;;;5124912;28;20040;-60
2024/04/04 12:11:15;;;;;;;16.77;3.20;;;;;;;;;;5126907;28;20028;-60
2024/04/04 12:13:40;;;;;;;14.65;3.05;;;;;;;;;;5128959;28;20047;-60
2024/04/04 12:16:08;;;;;;;14.55;2.47;;;;;;;;;;5123854;28;20039;-61
2024/04/04 12:21:18;;;;;;;14.07;3.77;;;;;;;;;;5134527;28;20003;-60
2024/04/04 12:23:44;;;;;;;22.23;4.90;;;;;;;;;;5134455;28;20028;-61
2024/04/04 12:26:09;;;;;;;18.25;4.40;;;;;;;;;;5132304;28;20063;-58
2024/04/04 12:28:35;;;;;;;24.38;5.28;;;;;;;;;;5130709;28;20032;-59
2024/04/04 12:31:00;;;;;;;23.00;5.00;;;;;;;;;;5130240;28;20099;-60
2024/04/04 12:33:26;;;;;;;18.23;3.70;;;;;;;;;;5138150;28;20035;-61
2024/04/04 12:35:54;;;;;;;18.67;5.45;;;;;;;;;;5120767;28;20096;-61
2024/04/04 12:38:20;;;;;;;27.93;5.40;;;;;;;;;;5119975;28;20087;-61
2024/04/04 12:40:45;;;;;;;;;;;;;;;;;;5130671;28;20061;-60
2024/04/04 12:43:12;;;;;;;23.85;4.40;;;;;;;;;;5108533;28;19919;-61
2024/04/04 12:45:37;;;;;;;;;;;;;;;;;;5138373;28;20042;-60
2024/04/04 12:48:02;;;;;;;16.23;3.97;;;;;;;;;;5135121;28;19911;-60
2024/04/04 12:50:28;;;;;;;;;;;;;;;;;;5138491;28;20063;-59
2024/04/04 12:52:53;;;;;;;16.88;4.50;;;;;;;;;;5138092;28;20357;-60
2024/04/04 12:55:22;;;;;;;17.08;3.70;;;;;;;;;;5129628;28;20032;-60
2024/04/04 12:57:48;;;;;;;19.42;4.03;;;;;;;;;;5114468;28;20027;-61
2024/04/04 13:00:15;;;;;;;14.52;4.60;;;;;;;;;;5137707;28;20027;-59
2024/04/04 13:02:41;;;;;;;22.33;4.47;;;;;;;;;;5137726;28;20054;-60
2024/04/04 13:05:06;;;;;;;;;;;;;;;;;;5138343;28;20028;-60
2024/04/04 13:07:32;;;;;;;18.02;4.18;;;;;;;;;;5133539;28;19915;-60
2024/04/04 13:09:59;;;;;;;18.33;4.90;;;;;;;;;;5137778;28;20110;-61
2024/04/04 13:12:25;;;;;;;19.77;5.15;;;;;;;;;;5137814;28;20031;-60
2024/04/04 13:14:50;;;;;;;;;;;;;;;;;;5134944;28;20032;-60
2024/04/04 13:17:16;;;;;;;17.30;3.95;;;;;;;;;;5124193;28;19916;-60
2024/04/04 13:19:42;;;;;;;20.73;4.80;;;;;;;;;;5137565;28;20031;-61
2024/04/04 13:22:08;;;;;;;16.30;4.53;;;;;;;;;;5137471;28;20031;-60
2024/04/04 13:24:35;;;;;;;;;;;;;;;;;;5137896;28;20024;-63
2024/04/04 13:27:02;;;;;;;20.10;3.78;;;;;;;;;;5136761;28;19908;-61
2024/04/04 13:29:28;;;;;;;20.77;3.83;;;;;;;;;;5130730;28;20034;-61
2024/04/04 13:31:53;;;;;;;21.35;3.70;;;;;;;;;;5131472;28;20047;-60
2024/04/04 13:34:19;;;;;;;21.90;4.93;;;;;;;;;;5128212;28;20040;-60
2024/04/04 13:36:45;;;;;;;19.45;4.13;;;;;;;;;;5134394;28;20062;-61
2024/04/04 13:39:16;;;;;;;21.00;3.83;;;;;;;;;;5133412;28;20028;-60
2024/04/04 13:41:42;;;;;;;21.90;4.33;;;;;;;;;;5135825;28;20035;-60
2024/04/04 13:44:07;;;;;;;23.70;3.67;;;;;;;;;;5125086;28;20032;-61
2024/04/04 13:46:33;;;;;;;19.98;4.10;;;;;;;;;;5121273;28;20141;-61
2024/04/04 13:48:58;;;;;;;24.38;5.75;;;;;;;;;;5131610;28;20050;-61
2024/04/04 13:51:24;;;;;;;23.55;5.40;;;;;;;;;;5136658;28;20039;-61
2024/04/04 13:53:49;;;;;;;16.33;2.80;;;;;;;;;;5136725;28;20035;-60
2024/04/04 13:56:15;;;;;;;19.55;3.90;;;;;;;;;;5113180;28;20042;-60
2024/04/04 13:58:40;;;;;;;17.20;4.28;;;;;;;;;;5125188;28;20118;-60
2024/04/04 14:01:06;;;;;;;19.85;4.07;;;;;;;;;;5134120;28;20077;-60
2024/04/04 14:03:31;;;;;;;22.75;3.80;;;;;;;;;;5136735;28;20073;-60
2024/04/04 14:05:57;;;;;;;23.50;4.32;;;;;;;;;;5124827;28;20039;-60
2024/04/04 14:08:22;;;;;;;20.58;4.40;;;;;;;;;;5129321;28;20027;-61
2024/04/04 14:10:47;;;;;;;27.60;5.10;;;;;;;;;;5136383;28;20046;-61
2024/04/04 14:13:13;;;;;;;22.25;5.05;;;;;;;;;;5136285;28;20043;-60
2024/04/04 14:15:39;;;;;;;18.90;4.38;;;;;;;;;;5136020;28;20042;-60
2024/04/04 14:18:04;;;;;;;22.73;4.95;;;;;;;;;;5135606;28;20047;-60
2024/04/04 14:20:31;;;;;;;;;;;;;;;;;;5136719;28;20027;-61
2024/04/04 14:22:56;;;;;;;20.43;4.67;;;;;;;;;;5136253;28;19992;-61
2024/04/04 14:25:21;;;;;;;22.05;5.05;;;;;;;;;;5136484;28;20023;-60
2024/04/04 14:27:47;;;;;;;20.13;6.13;;;;;;;;;;5133275;28;20027;-60
2024/04/04 14:30:13;;;;;;;19.80;4.90;;;;;;;;;;5136154;28;20256;-60
2024/04/04 14:32:38;;;;;;;33.15;6.47;;;;;;;;;;5135955;28;20032;-60